ADZ29D LTFJ-LGSM
Flight info
| Callsign | ADZ29D |
|---|---|
| Flight time | N/A |
| Altitude | 36000 |
| Route | MARMA UY255 BIG/N0443F350 UG80 IMR R32 NISOS H59 ORMOS |
| Aircraft | B738/M-SDE3FGHIJ1RWY/LB2 |
Departure
| Time | N/A |
|---|---|
| Airport | Istanbul Sabiha Gökçen International Airport (LTFJ) |
Arrival
| Time | 2026-04-29 18:42 |
|---|---|
| Airport | Samos Airport (LGSM) |
| Time | Latitude | Longitude | Altitude | Speed | Heading |
|---|---|---|---|---|---|
| 2026-04-29 18:12 | 40.06855 | 27.28353 | 31933 ft | 435 kts | 189° |
| 2026-04-29 18:12 | 40.03816 | 27.28003 | 32011 ft | 442 kts | 189° |
| 2026-04-29 18:13 | 39.97591 | 27.27140 | 32196 ft | 455 kts | 191° |
| 2026-04-29 18:13 | 39.94432 | 27.26651 | 32404 ft | 458 kts | 191° |
| 2026-04-29 18:13 | 39.91303 | 27.26150 | 32756 ft | 458 kts | 191° |
| 2026-04-29 18:13 | 39.88152 | 27.25638 | 33170 ft | 456 kts | 191° |
| 2026-04-29 18:14 | 39.85011 | 27.25124 | 33560 ft | 454 kts | 191° |
| 2026-04-29 18:14 | 39.81878 | 27.24612 | 33875 ft | 454 kts | 191° |
| 2026-04-29 18:14 | 39.78733 | 27.24097 | 34125 ft | 456 kts | 191° |
| 2026-04-29 18:14 | 39.75580 | 27.23583 | 34347 ft | 457 kts | 191° |
| 2026-04-29 18:15 | 39.72421 | 27.23069 | 34633 ft | 456 kts | 191° |
| 2026-04-29 18:15 | 39.69265 | 27.22557 | 34931 ft | 455 kts | 191° |
| 2026-04-29 18:15 | 39.66125 | 27.22049 | 35228 ft | 454 kts | 191° |
| 2026-04-29 18:15 | 39.62992 | 27.21543 | 35516 ft | 453 kts | 191° |
| 2026-04-29 18:16 | 39.59857 | 27.21036 | 35774 ft | 453 kts | 191° |
| 2026-04-29 18:16 | 39.56726 | 27.20530 | 36031 ft | 453 kts | 191° |
| 2026-04-29 18:16 | 39.54653 | 27.20195 | 36089 ft | 456 kts | 191° |
| 2026-04-29 18:17 | 39.48328 | 27.19173 | 36076 ft | 458 kts | 191° |
| 2026-04-29 18:17 | 39.42038 | 27.18164 | 36056 ft | 451 kts | 191° |
| 2026-04-29 18:18 | 39.34801 | 27.17005 | 36076 ft | 450 kts | 191° |
| 2026-04-29 18:18 | 39.29628 | 27.16173 | 36055 ft | 450 kts | 191° |
| 2026-04-29 18:19 | 39.23397 | 27.15174 | 36071 ft | 453 kts | 191° |
| 2026-04-29 18:19 | 39.17268 | 27.14201 | 35912 ft | 430 kts | 191° |
| 2026-04-29 18:19 | 39.14323 | 27.13735 | 35586 ft | 424 kts | 191° |
| 2026-04-29 18:20 | 39.11411 | 27.13272 | 35148 ft | 421 kts | 191° |
| 2026-04-29 18:20 | 39.08520 | 27.12808 | 34677 ft | 427 kts | 191° |
| 2026-04-29 18:20 | 39.05514 | 27.12322 | 34080 ft | 439 kts | 191° |
| 2026-04-29 18:20 | 39.02480 | 27.11835 | 33392 ft | 440 kts | 191° |
| 2026-04-29 18:21 | 38.99437 | 27.11351 | 32704 ft | 442 kts | 191° |
| 2026-04-29 18:21 | 38.96380 | 27.10866 | 32038 ft | 443 kts | 190° |
| 2026-04-29 18:21 | 38.93322 | 27.10383 | 31553 ft | 440 kts | 190° |
| 2026-04-29 18:21 | 38.90295 | 27.09906 | 31068 ft | 437 kts | 190° |
| 2026-04-29 18:22 | 38.87294 | 27.09433 | 30612 ft | 433 kts | 190° |
| 2026-04-29 18:22 | 38.84310 | 27.08962 | 30169 ft | 430 kts | 190° |
| 2026-04-29 18:22 | 38.81346 | 27.08494 | 29629 ft | 428 kts | 190° |
| 2026-04-29 18:22 | 38.78403 | 27.08029 | 29137 ft | 424 kts | 190° |
| 2026-04-29 18:23 | 38.75487 | 27.07569 | 28659 ft | 421 kts | 190° |
| 2026-04-29 18:23 | 38.72586 | 27.07111 | 28185 ft | 418 kts | 190° |
| 2026-04-29 18:23 | 38.69745 | 27.06664 | 27704 ft | 415 kts | 190° |
| 2026-04-29 18:23 | 38.66882 | 27.06213 | 27246 ft | 412 kts | 190° |
| 2026-04-29 18:24 | 38.64035 | 27.05765 | 26783 ft | 410 kts | 189° |
| 2026-04-29 18:24 | 38.61212 | 27.05321 | 26310 ft | 407 kts | 189° |
| 2026-04-29 18:24 | 38.58435 | 27.04884 | 25856 ft | 405 kts | 189° |
| 2026-04-29 18:24 | 38.55638 | 27.04445 | 25397 ft | 403 kts | 189° |
| 2026-04-29 18:25 | 38.52856 | 27.04009 | 24941 ft | 402 kts | 189° |
| 2026-04-29 18:25 | 38.50079 | 27.03573 | 24478 ft | 400 kts | 189° |
| 2026-04-29 18:25 | 38.47320 | 27.03141 | 24029 ft | 399 kts | 189° |
| 2026-04-29 18:25 | 38.44572 | 27.02711 | 23560 ft | 398 kts | 189° |
| 2026-04-29 18:26 | 38.41829 | 27.02281 | 23026 ft | 396 kts | 189° |
| 2026-04-29 18:26 | 38.39098 | 27.01855 | 22544 ft | 394 kts | 189° |
| 2026-04-29 18:26 | 38.36390 | 27.01432 | 22101 ft | 391 kts | 189° |
| 2026-04-29 18:26 | 38.33723 | 27.00858 | 21620 ft | 386 kts | 199° |
| 2026-04-29 18:27 | 38.31310 | 26.99469 | 21249 ft | 378 kts | 211° |
| 2026-04-29 18:27 | 38.28912 | 26.98117 | 20890 ft | 374 kts | 200° |
| 2026-04-29 18:27 | 38.26400 | 26.97293 | 20289 ft | 371 kts | 190° |
| 2026-04-29 18:27 | 38.23891 | 26.96951 | 20140 ft | 359 kts | 187° |
| 2026-04-29 18:28 | 38.21456 | 26.96686 | 20026 ft | 343 kts | 187° |
| 2026-04-29 18:28 | 38.19145 | 26.96446 | 20005 ft | 323 kts | 187° |
| 2026-04-29 18:28 | 38.16970 | 26.96217 | 20003 ft | 304 kts | 187° |
| 2026-04-29 18:28 | 38.14928 | 26.95996 | 20001 ft | 285 kts | 187° |
| 2026-04-29 18:29 | 38.13000 | 26.95782 | 20007 ft | 271 kts | 187° |
| 2026-04-29 18:29 | 38.11753 | 26.95642 | 20016 ft | 271 kts | 188° |
| 2026-04-29 18:29 | 38.09225 | 26.95351 | 19962 ft | 277 kts | 187° |
| 2026-04-29 18:29 | 38.07294 | 26.95128 | 19474 ft | 283 kts | 187° |
| 2026-04-29 18:30 | 38.05279 | 26.94894 | 18607 ft | 299 kts | 187° |
| 2026-04-29 18:30 | 38.03123 | 26.94643 | 17401 ft | 322 kts | 187° |
| 2026-04-29 18:30 | 38.00824 | 26.94378 | 16204 ft | 340 kts | 186° |
| 2026-04-29 18:30 | 37.98418 | 26.94102 | 15160 ft | 351 kts | 186° |
| 2026-04-29 18:31 | 37.95979 | 26.93824 | 14391 ft | 351 kts | 186° |
| 2026-04-29 18:31 | 37.93563 | 26.93549 | 13756 ft | 346 kts | 186° |
| 2026-04-29 18:31 | 37.91179 | 26.93278 | 12996 ft | 343 kts | 186° |
| 2026-04-29 18:31 | 37.88801 | 26.93006 | 12244 ft | 343 kts | 186° |
| 2026-04-29 18:32 | 37.86450 | 26.92738 | 11491 ft | 343 kts | 185° |
| 2026-04-29 18:32 | 37.81740 | 26.92199 | 10188 ft | 338 kts | 185° |
| 2026-04-29 18:32 | 37.79414 | 26.91934 | 9536 ft | 334 kts | 185° |
| 2026-04-29 18:33 | 37.77094 | 26.91669 | 8827 ft | 332 kts | 185° |
| 2026-04-29 18:33 | 37.74794 | 26.91406 | 8198 ft | 329 kts | 184° |
| 2026-04-29 18:33 | 37.72526 | 26.91148 | 7531 ft | 327 kts | 185° |
| 2026-04-29 18:33 | 37.70264 | 26.90890 | 6987 ft | 322 kts | 185° |
| 2026-04-29 18:34 | 37.68093 | 26.90790 | 6861 ft | 302 kts | 172° |
| 2026-04-29 18:34 | 37.66763 | 26.91161 | 6770 ft | 289 kts | 162° |
| 2026-04-29 18:34 | 37.64294 | 26.92133 | 6452 ft | 276 kts | 161° |
| 2026-04-29 18:34 | 37.62470 | 26.92838 | 6084 ft | 271 kts | 162° |
| 2026-04-29 18:35 | 37.60701 | 26.93495 | 5870 ft | 261 kts | 162° |
| 2026-04-29 18:35 | 37.59003 | 26.94107 | 5638 ft | 249 kts | 162° |
| 2026-04-29 18:35 | 37.57338 | 26.94699 | 5109 ft | 249 kts | 162° |
| 2026-04-29 18:35 | 37.55676 | 26.95287 | 4626 ft | 246 kts | 162° |
| 2026-04-29 18:36 | 37.54031 | 26.95859 | 4190 ft | 243 kts | 165° |
| 2026-04-29 18:36 | 37.52379 | 26.95761 | 3943 ft | 242 kts | 205° |
| 2026-04-29 18:36 | 37.51218 | 26.94384 | 3757 ft | 223 kts | 249° |
| 2026-04-29 18:36 | 37.51116 | 26.92579 | 3575 ft | 200 kts | 291° |
| 2026-04-29 18:37 | 37.51714 | 26.91073 | 3414 ft | 189 kts | 318° |
| 2026-04-29 18:37 | 37.52768 | 26.90199 | 3274 ft | 179 kts | 345° |
| 2026-04-29 18:37 | 37.53993 | 26.89996 | 3075 ft | 179 kts | 4° |
| 2026-04-29 18:37 | 37.55239 | 26.90059 | 2844 ft | 179 kts | 3° |
| 2026-04-29 18:38 | 37.56457 | 26.90115 | 2638 ft | 175 kts | 3° |
| 2026-04-29 18:38 | 37.57642 | 26.90171 | 2512 ft | 164 kts | 3° |
| 2026-04-29 18:38 | 37.58767 | 26.90225 | 2512 ft | 162 kts | 3° |
| 2026-04-29 18:38 | 37.59899 | 26.90315 | 2490 ft | 164 kts | 11° |
| 2026-04-29 18:39 | 37.60938 | 26.90896 | 2400 ft | 161 kts | 32° |
| 2026-04-29 18:39 | 37.61839 | 26.91717 | 2262 ft | 159 kts | 36° |
| 2026-04-29 18:39 | 37.62678 | 26.92577 | 2169 ft | 153 kts | 37° |
| 2026-04-29 18:39 | 37.63468 | 26.93432 | 2028 ft | 141 kts | 39° |
| 2026-04-29 18:40 | 37.64143 | 26.94256 | 1846 ft | 132 kts | 43° |
| 2026-04-29 18:40 | 37.64785 | 26.95052 | 1635 ft | 132 kts | 39° |
| 2026-04-29 18:40 | 37.65493 | 26.95759 | 1452 ft | 128 kts | 31° |
| 2026-04-29 18:40 | 37.66275 | 26.96314 | 1269 ft | 132 kts | 20° |
| 2026-04-29 18:41 | 37.68526 | 26.95056 | 606 ft | 142 kts | 297° |
| 2026-04-29 18:41 | 37.68747 | 26.93794 | 313 ft | 151 kts | 280° |
| 2026-04-29 18:42 | 37.68832 | 26.92502 | 99 ft | 144 kts | 279° |
| 2026-04-29 18:42 | 37.68912 | 26.91322 | 28 ft | 114 kts | 274° |
| 2026-04-29 18:42 | 37.68952 | 26.90729 | 28 ft | 13 kts | 297° |
| 2026-04-29 18:42 | 37.68941 | 26.90682 | 28 ft | 7 kts | 153° |
| 2026-04-29 18:43 | 37.68940 | 26.90752 | 28 ft | 11 kts | 88° |
| 2026-04-29 18:43 | 37.68937 | 26.90875 | 28 ft | 17 kts | 95° |
| 2026-04-29 18:43 | 37.68933 | 26.91022 | 28 ft | 14 kts | 71° |
| 2026-04-29 18:43 | 37.69007 | 26.91078 | 28 ft | 12 kts | 65° |
| 2026-04-29 18:44 | 37.69009 | 26.91168 | 28 ft | 8 kts | 76° |
| 2026-04-29 18:44 | 37.69049 | 26.91181 | 28 ft | 5 kts | 2° |
| 2026-04-29 18:44 | 37.69065 | 26.91182 | 28 ft | 2 kts | 4° |
| 2026-04-29 18:44 | 37.69071 | 26.91183 | 28 ft | 0 kts | 4° |